X  Blizu METAR Podaci o vazduhoplovstvu     KDNN Dalton Municipal Airport
Temperatura
55°F Temperatura
54°F Tačka Rose
94% Vlaga



Vetar
0 MPS
0 KM/S
0 M/S
0 Čvorovi



Tiho
S
Trenutna situacija

Slaba Kiša Slaba Kiša
Vazdušni pritisak 1022.72 (hPa) - 30.2 (inHg)
Vidljivost 7 (Milje) - 11.3 (km)
Aerodrom
Aerodromski kod. KDNN

Lokacija: Dalton Municipal Airport
Udaljenost: 34 (mi)

Metar:
KDNN 311635Z AUTO 00000KT 7SM -RA BKN005 OVC018 13/12 A3020 RMK AO2 RAE1556B1635 CIG 005V007 P0000 T01260123

Vreme: 01-31-2023 11:35 EST